Time;durP1;ratioP1;P1;durP2;ratioP2;P2;SDS_P1;SDS_P2;PMS_P1;PMS_P2;Temp;Humidity;BMP_temperature;BMP_pressure;BME280_temperature;BME280_humidity;BME280_pressure;Samples;Min_cycle;Max_cycle;Signal;HPM_P1;HPM_P2
2023/06/18 00:01:05;;;;;;;12.80;9.70;;;;;;;23.66;52.16;100053.32;108989;1258;71633;-77
2023/06/18 00:03:32;;;;;;;11.10;9.90;;;;;;;23.64;52.66;100054.06;109060;1257;72779;-77
2023/06/18 00:06:00;;;;;;;10.90;9.80;;;;;;;23.63;52.99;100054.05;109087;1257;72387;-77
2023/06/18 00:09:03;;;;;;;10.90;9.50;;;;;;;23.62;53.37;100048.79;109033;1257;61815;-77
2023/06/18 00:15:12;;;;;;;11.50;9.90;;;;;;;23.57;53.33;100046.05;108998;1257;73973;-77
2023/06/18 00:17:39;;;;;;;12.00;9.60;;;;;;;23.54;53.55;100045.97;109080;1257;73006;-78
2023/06/18 00:20:24;;;;;;;10.40;9.40;;;;;;;23.53;53.71;100044.86;109006;1257;73178;-77
2023/06/18 00:23:28;;;;;;;13.50;10.10;;;;;;;23.55;53.46;100041.15;109008;1257;60205;-77
2023/06/18 00:26:32;;;;;;;11.70;10.50;;;;;;;23.54;53.53;100038.34;109008;1257;59460;-77
2023/06/18 00:29:18;;;;;;;14.10;10.10;;;;;;;23.56;53.70;100039.02;109034;1257;72813;-77
2023/06/18 00:32:21;;;;;;;14.80;10.70;;;;;;;23.61;53.70;100041.91;109011;1257;72621;-77
2023/06/18 00:38:32;;;;;;;11.30;10.10;;;;;;;23.65;54.16;100039.58;108945;1257;60472;-77
2023/06/18 00:45:18;;;;;;;12.00;10.80;;;;;;;23.52;55.68;100043.67;109068;1257;73643;-77
2023/06/18 01:02:14;;;;;;;13.70;10.10;;;;;;;23.40;57.72;100041.48;109009;1257;73879;-78
2023/06/18 01:04:45;;;;;;;14.50;11.00;;;;;;;23.37;58.06;100040.77;109083;1258;72677;-78
2023/06/18 01:08:06;;;;;;;12.50;11.20;;;;;;;23.36;58.30;100041.00;109087;1257;72401;-78
2023/06/18 01:10:52;;;;;;;11.50;10.40;;;;;;;23.39;58.51;100040.52;108939;1257;60732;-78
2023/06/18 01:13:25;;;;;;;13.00;10.90;;;;;;;23.42;58.67;100043.55;109059;1257;60460;-77
2023/06/18 01:19:01;;;;;;;11.20;10.10;;;;;;;23.49;59.24;100050.29;109000;1257;71770;-78
2023/06/18 01:24:36;;;;;;;11.70;10.50;;;;;;;23.49;59.42;100052.23;108973;1258;62100;-78
2023/06/18 01:27:47;;;;;;;11.70;10.10;;;;;;;23.50;59.68;100054.84;108951;1258;58667;-78
2023/06/18 01:30:33;;;;;;;12.20;10.70;;;;;;;23.53;59.77;100059.11;108933;1259;73230;-77
2023/06/18 01:36:24;;;;;;;12.60;10.50;;;;;;;23.55;60.16;100057.61;109018;1257;73110;-78
2023/06/18 01:39:47;;;;;;;11.30;10.20;;;;;;;23.59;59.86;100055.83;108958;1257;59329;-78
2023/06/18 01:45:24;;;;;;;11.70;10.50;;;;;;;23.61;59.51;100055.94;108941;1257;72412;-78
2023/06/18 01:51:50;;;;;;;14.70;11.40;;;;;;;23.61;58.85;100061.77;108990;1257;71373;-77
2023/06/18 01:54:36;;;;;;;11.20;10.10;;;;;;;23.58;58.68;100061.63;108891;1257;61898;-77
2023/06/18 01:57:40;;;;;;;12.30;10.40;;;;;;;23.59;58.59;100063.84;108973;1258;58886;-78
2023/06/18 02:00:09;;;;;;;12.10;10.00;;;;;;;23.60;58.20;100065.65;109011;1258;72679;-78
2023/06/18 02:06:00;;;;;;;11.60;10.20;;;;;;;23.60;57.44;100070.09;108942;1260;71523;-77
2023/06/18 02:08:47;;;;;;;10.80;9.70;;;;;;;23.57;56.33;100064.95;109011;1257;60320;-78
2023/06/18 02:11:34;;;;;;;10.20;9.20;;;;;;;23.53;55.56;100063.33;108967;1257;59061;-77
2023/06/18 02:14:02;;;;;;;14.20;10.40;;;;;;;23.49;55.09;100065.25;108956;1258;73898;-77
2023/06/18 02:16:30;;;;;;;10.90;9.80;;;;;;;23.46;54.50;100067.98;109042;1257;72680;-77
2023/06/18 02:18:57;;;;;;;11.30;10.10;;;;;;;23.44;54.08;100069.81;109011;1257;71305;-77
2023/06/18 02:21:43;;;;;;;11.10;9.90;;;;;;;23.40;53.44;100074.57;108999;1257;60501;-78
2023/06/18 02:27:52;;;;;;;15.20;10.70;;;;;;;23.34;52.28;100079.18;108983;1257;73756;-78
2023/06/18 02:33:25;;;;;;;10.60;9.50;;;;;;;23.27;51.40;100085.24;109046;1257;71997;-77
2023/06/18 02:36:12;;;;;;;11.50;9.30;;;;;;;23.25;51.11;100084.88;108933;1257;60239;-77
2023/06/18 02:38:44;;;;;;;10.70;9.30;;;;;;;23.22;50.92;100084.97;109085;1257;60361;-77
2023/06/18 02:41:11;;;;;;;12.00;10.20;;;;;;;23.31;50.70;100088.52;108957;1259;73945;-77
2023/06/18 02:43:39;;;;;;;13.10;10.40;;;;;;;23.34;50.52;100089.59;109131;1257;71448;-77
2023/06/18 02:46:06;;;;;;;10.80;9.70;;;;;;;23.30;50.55;100090.69;109042;1259;71206;-77
2023/06/18 02:48:34;;;;;;;11.00;9.60;;;;;;;23.28;50.48;100089.48;109049;1257;62338;-77
2023/06/18 02:51:01;;;;;;;11.20;9.80;;;;;;;23.28;50.49;100091.02;108909;1261;60321;-77
2023/06/18 02:53:28;;;;;;;11.30;9.50;;;;;;;23.29;50.29;100091.58;109035;1258;74493;-77
2023/06/18 02:55:55;;;;;;;12.10;10.00;;;;;;;23.30;50.25;100089.13;108991;1259;71715;-77
2023/06/18 02:58:28;;;;;;;10.20;9.20;;;;;;;23.31;49.88;100088.14;108730;1257;358873;-77
2023/06/18 03:00:57;;;;;;;10.70;9.60;;;;;;;23.33;49.87;100089.28;108946;1257;60100;-77
2023/06/18 03:03:24;;;;;;;10.60;9.50;;;;;;;23.36;49.87;100084.89;108974;1258;60133;-77
2023/06/18 03:05:52;;;;;;;12.90;9.90;;;;;;;23.36;50.04;100089.11;109047;1259;72429;-77
2023/06/18 03:08:19;;;;;;;11.90;10.00;;;;;;;23.30;50.07;100090.13;108951;1258;72605;-77
2023/06/18 03:10:48;;;;;;;11.00;9.90;;;;;;;23.31;49.73;100093.19;109032;1259;72733;-77
2023/06/18 03:13:15;;;;;;;10.20;9.30;;;;;;;23.33;49.83;100095.04;109035;1257;60076;-77
2023/06/18 03:15:45;;;;;;;10.00;9.10;;;;;;;23.36;49.61;100095.27;109007;1257;60226;-77
2023/06/18 03:18:12;;;;;;;13.20;9.90;;;;;;;23.40;49.28;100096.36;109021;1259;73986;-77
2023/06/18 03:20:40;;;;;;;11.10;10.00;;;;;;;23.44;49.03;100096.60;108980;1259;71284;-76
2023/06/18 03:23:07;;;;;;;10.20;9.10;;;;;;;23.59;48.79;100102.10;108983;1257;71453;-76
2023/06/18 03:25:34;;;;;;;10.30;9.00;;;;;;;23.58;48.56;100101.13;108961;1260;58819;-76
2023/06/18 03:28:01;;;;;;;10.50;9.40;;;;;;;23.52;48.79;100100.77;109065;1257;60351;-76
2023/06/18 03:30:30;;;;;;;11.70;10.00;;;;;;;23.53;49.15;100102.59;109069;1257;72669;-76
2023/06/18 03:32:58;;;;;;;11.40;10.30;;;;;;;23.56;49.00;100100.85;108999;1257;72754;-76
2023/06/18 03:35:25;;;;;;;11.30;10.10;;;;;;;23.61;48.61;100101.52;108942;1257;72539;-76
2023/06/18 03:37:52;;;;;;;11.90;9.90;;;;;;;23.66;48.59;100105.12;108977;1257;58894;-76
2023/06/18 03:40:19;;;;;;;11.60;10.50;;;;;;;23.71;48.83;100101.51;108948;1257;60240;-76
2023/06/18 03:42:47;;;;;;;11.70;10.50;;;;;;;23.76;48.87;100103.33;109002;1259;74064;-76
2023/06/18 03:45:16;;;;;;;12.80;10.20;;;;;;;23.80;48.80;100105.84;108981;1257;71563;-77
2023/06/18 03:47:44;;;;;;;12.80;10.70;;;;;;;23.86;48.61;100110.80;108978;1259;72799;-76
2023/06/18 03:50:11;;;;;;;11.20;10.20;;;;;;;23.92;48.76;100112.23;108932;1259;61534;-76
2023/06/18 03:52:38;;;;;;;11.60;9.90;;;;;;;23.97;48.61;100109.70;108927;1257;60468;-76
2023/06/18 03:55:06;;;;;;;11.80;10.60;;;;;;;24.02;48.47;100111.59;108979;1259;72675;-76
2023/06/18 03:57:33;;;;;;;11.50;10.40;;;;;;;24.07;48.23;100113.27;109022;1258;72735;-77
2023/06/18 04:00:00;;;;;;;13.00;10.60;;;;;;;24.12;48.01;100118.66;108981;1257;72522;-77
2023/06/18 04:02:26;;;;;;;12.60;11.20;;;;;;;24.16;47.71;100120.38;108947;1257;58882;-76
2023/06/18 04:04:53;;;;;;;11.90;10.70;;;;;;;24.22;47.89;100115.80;109043;1257;58173;-77
2023/06/18 04:07:20;;;;;;;11.40;10.20;;;;;;;24.28;48.01;100118.36;109071;1257;74785;-79
2023/06/18 04:09:47;;;;;;;11.70;10.50;;;;;;;24.34;48.04;100119.02;109005;1259;72388;-77
2023/06/18 04:12:14;;;;;;;12.10;10.80;;;;;;;24.42;48.20;100122.16;109017;1257;71215;-77
2023/06/18 04:14:41;;;;;;;12.70;10.70;;;;;;;24.50;48.12;100124.66;108962;1257;60216;-77
2023/06/18 04:17:08;;;;;;;11.60;10.40;;;;;;;24.57;48.27;100114.95;109058;1257;58806;-77
2023/06/18 04:19:36;;;;;;;11.40;10.20;;;;;;;24.64;48.40;100117.11;109002;1257;72668;-77
2023/06/18 04:22:03;;;;;;;12.00;10.80;;;;;;;24.73;48.47;100124.13;109020;1257;71637;-77
2023/06/18 04:24:32;;;;;;;11.70;10.10;;;;;;;24.82;48.67;100124.77;109006;1259;72789;-77
2023/06/18 04:26:59;;;;;;;11.70;10.10;;;;;;;24.88;48.08;100126.27;108979;1257;58931;-77
2023/06/18 04:29:26;;;;;;;11.60;10.40;;;;;;;24.92;47.96;100132.27;108962;1257;60063;-77
2023/06/18 04:31:53;;;;;;;11.30;10.20;;;;;;;24.99;48.02;100133.11;109031;1257;73622;-77
2023/06/18 04:34:21;;;;;;;10.70;9.70;;;;;;;25.10;47.81;100133.14;109082;1257;71268;-77
2023/06/18 04:36:48;;;;;;;12.60;10.80;;;;;;;25.21;47.55;100134.65;109066;1259;71849;-77
2023/06/18 04:39:15;;;;;;;11.50;10.30;;;;;;;25.28;47.29;100130.31;109010;1257;60064;-77
2023/06/18 04:41:43;;;;;;;11.30;10.20;;;;;;;25.34;47.42;100127.98;108937;1259;59817;-77
2023/06/18 04:44:12;;;;;;;11.00;9.90;;;;;;;25.42;47.52;100127.73;109016;1257;73655;-77
2023/06/18 04:46:41;;;;;;;11.40;10.10;;;;;;;25.50;47.30;100134.87;109027;1257;72700;-77
2023/06/18 04:49:08;;;;;;;11.10;10.00;;;;;;;25.59;47.20;100133.82;108861;1259;72742;-77
2023/06/18 04:51:35;;;;;;;10.80;9.50;;;;;;;25.68;47.29;100137.02;108975;1258;60232;-78
2023/06/18 04:54:03;;;;;;;10.90;9.80;;;;;;;25.80;47.36;100140.08;108954;1259;60142;-78
2023/06/18 04:56:30;;;;;;;11.20;9.30;;;;;;;25.85;47.12;100139.52;108979;1257;73969;-78
2023/06/18 04:58:58;;;;;;;10.80;9.70;;;;;;;25.92;46.28;100141.11;109006;1257;72794;-78
2023/06/18 05:01:24;;;;;;;10.70;9.60;;;;;;;26.00;45.55;100147.15;109022;1257;72671;-78
2023/06/18 05:03:51;;;;;;;10.70;9.60;;;;;;;26.04;45.17;100145.49;108929;1258;59059;-78
2023/06/18 05:06:19;;;;;;;10.50;9.40;;;;;;;26.08;45.16;100151.71;108935;1258;58900;-77
2023/06/18 05:08:46;;;;;;;11.10;9.80;;;;;;;26.12;44.42;100151.54;109014;1257;73882;-77
2023/06/18 05:11:13;;;;;;;12.30;10.20;;;;;;;26.19;43.46;100153.89;108988;1259;72555;-77
2023/06/18 05:13:40;;;;;;;12.30;10.50;;;;;;;26.27;43.27;100148.98;108865;1258;72479;-78
2023/06/18 05:16:08;;;;;;;11.10;10.00;;;;;;;26.37;42.83;100150.42;108899;1257;59122;-78
2023/06/18 05:18:37;;;;;;;12.90;10.20;;;;;;;26.49;42.04;100152.92;108981;1262;60021;-77
2023/06/18 05:21:03;;;;;;;10.70;9.60;;;;;;;26.59;41.83;100153.43;108968;1257;73659;-77
2023/06/18 05:23:31;;;;;;;11.90;10.80;;;;;;;26.76;41.89;100158.30;108908;1258;71378;-77
2023/06/18 05:25:57;;;;;;;12.20;10.50;;;;;;;26.88;41.64;100160.61;109013;1257;72726;-78
2023/06/18 05:28:24;;;;;;;11.20;10.10;;;;;;;26.98;41.09;100158.82;109003;1257;60716;-78
2023/06/18 05:30:51;;;;;;;12.00;10.30;;;;;;;27.08;40.67;100153.90;108960;1257;60232;-78
2023/06/18 05:33:19;;;;;;;11.60;10.40;;;;;;;27.19;40.00;100158.64;109012;1260;72458;-77
2023/06/18 05:35:49;;;;;;;10.90;9.80;;;;;;;27.23;39.35;100156.33;109005;1259;73756;-76
2023/06/18 05:38:17;;;;;;;12.00;10.70;;;;;;;27.26;39.20;100157.21;108904;1257;72735;-77
2023/06/18 05:40:44;;;;;;;12.30;11.00;;;;;;;27.30;39.31;100160.92;108889;1259;58739;-77
2023/06/18 05:43:11;;;;;;;11.90;10.60;;;;;;;27.38;39.70;100164.83;109034;1257;59057;-78
2023/06/18 05:45:43;;;;;;;12.50;10.40;;;;;;;27.55;39.55;100166.84;109044;1259;73748;-77
2023/06/18 05:48:11;;;;;;;13.20;10.50;;;;;;;27.70;38.54;100166.37;108964;1257;72119;-77
2023/06/18 05:50:46;;;;;;;10.30;9.30;;;;;;;27.82;37.32;100167.65;108874;1257;71255;-78
2023/06/18 05:53:13;;;;;;;12.40;9.90;;;;;;;27.90;37.11;100172.33;108899;1259;58805;-77
2023/06/18 05:55:41;;;;;;;10.70;9.20;;;;;;;28.02;37.58;100171.52;108912;1257;60352;-77
2023/06/18 05:58:08;;;;;;;9.70;8.70;;;;;;;28.12;35.99;100169.45;108975;1259;72572;-78
2023/06/18 06:00:35;;;;;;;10.20;9.10;;;;;;;28.21;36.73;100168.39;108898;1257;72858;-77
2023/06/18 06:03:02;;;;;;;9.60;8.60;;;;;;;28.48;36.68;100168.36;108939;1257;72564;-77
2023/06/18 06:05:29;;;;;;;11.20;9.30;;;;;;;28.56;36.71;100171.44;108943;1259;58695;-78
2023/06/18 06:07:58;;;;;;;9.70;8.70;;;;;;;28.54;36.49;100168.14;108915;1258;59084;-76
2023/06/18 06:10:25;;;;;;;10.10;9.00;;;;;;;28.52;36.12;100174.80;108952;1258;72481;-78
2023/06/18 06:12:53;;;;;;;9.90;8.50;;;;;;;28.53;35.93;100174.35;108991;1257;72769;-78
2023/06/18 06:15:21;;;;;;;10.20;8.00;;;;;;;28.63;35.80;100174.29;108952;1257;70911;-78
2023/06/18 06:17:48;;;;;;;9.70;8.30;;;;;;;28.71;35.01;100175.48;108933;1259;58309;-79
2023/06/18 06:20:15;;;;;;;9.20;8.20;;;;;;;28.72;35.10;100174.14;108908;1259;58784;-77
2023/06/18 06:22:43;;;;;;;9.80;8.60;;;;;;;28.71;34.61;100176.02;109039;1257;73780;-77
2023/06/18 06:25:10;;;;;;;9.90;8.50;;;;;;;28.69;34.62;100179.02;108934;1257;72896;-78
2023/06/18 06:27:38;;;;;;;9.40;8.50;;;;;;;28.72;35.04;100179.48;109068;1257;71524;-76
2023/06/18 06:30:08;;;;;;;11.50;8.30;;;;;;;28.79;35.98;100180.21;109008;1257;59783;-77
2023/06/18 06:32:36;;;;;;;9.30;8.10;;;;;;;28.85;35.75;100185.25;109021;1258;60614;-78
2023/06/18 06:35:03;;;;;;;10.70;8.20;;;;;;;28.93;35.92;100186.75;108988;1261;72493;-78
2023/06/18 06:37:32;;;;;;;8.90;8.00;;;;;;;29.09;35.92;100188.44;109070;1257;72560;-77
2023/06/18 06:40:00;;;;;;;8.50;7.60;;;;;;;29.24;35.42;100186.72;108939;1257;62824;-76
2023/06/18 06:42:29;;;;;;;8.70;7.80;;;;;;;29.33;35.34;100191.67;108899;1261;60377;-77
2023/06/18 06:45:15;;;;;;;8.70;7.80;;;;;;;29.44;35.07;100198.50;108979;1257;58193;-75
2023/06/18 06:47:58;;;;;;;8.80;7.90;;;;;;;29.56;34.65;100197.08;108883;1261;63943;-78
2023/06/18 06:50:44;;;;;;;8.50;7.60;;;;;;;29.59;34.81;100193.79;108903;1258;64060;-78
2023/06/18 06:53:34;;;;;;;9.20;7.80;;;;;;;29.60;34.62;100190.95;108903;1257;64175;-77
2023/06/18 06:56:00;;;;;;;8.90;7.40;;;;;;;29.70;34.92;100196.00;108862;1257;60842;-77
2023/06/18 06:58:29;;;;;;;8.80;7.70;;;;;;;29.78;33.77;100200.62;108948;1257;58223;-76
2023/06/18 07:00:56;;;;;;;8.90;7.60;;;;;;;29.79;33.88;100200.23;109001;1258;73706;-77
2023/06/18 07:03:23;;;;;;;8.40;7.60;;;;;;;29.82;34.30;100201.55;109002;1257;64099;-78
2023/06/18 07:05:50;;;;;;;9.10;7.30;;;;;;;29.89;33.85;100202.71;108957;1261;62797;-78
2023/06/18 07:08:17;;;;;;;8.70;7.20;;;;;;;29.93;33.84;100201.30;108886;1261;58353;-78
2023/06/18 07:10:44;;;;;;;8.10;7.30;;;;;;;30.00;33.84;100205.29;108976;1257;58328;-77
2023/06/18 07:13:12;;;;;;;9.90;7.30;;;;;;;30.08;33.53;100209.34;108920;1257;65043;-76
2023/06/18 07:15:39;;;;;;;8.60;7.50;;;;;;;30.21;33.72;100210.66;109037;1259;64126;-77
2023/06/18 07:18:06;;;;;;;8.20;7.40;;;;;;;30.33;33.31;100210.08;108959;1261;62792;-78
2023/06/18 07:20:34;;;;;;;8.70;7.80;;;;;;;30.32;33.13;100209.77;108956;1259;58181;-77
2023/06/18 07:23:01;;;;;;;8.80;7.90;;;;;;;30.38;33.13;100211.00;109022;1257;58086;-77
2023/06/18 07:25:28;;;;;;;8.70;7.70;;;;;;;30.45;32.60;100210.66;108982;1257;63706;-77
2023/06/18 07:27:54;;;;;;;9.60;7.20;;;;;;;30.52;33.25;100212.67;109057;1257;65153;-77
2023/06/18 07:30:21;;;;;;;8.20;7.20;;;;;;;30.57;32.57;100210.05;108921;1258;62567;-78
2023/06/18 07:32:49;;;;;;;8.30;6.90;;;;;;;30.64;32.54;100211.66;109060;1257;58230;-77
2023/06/18 07:35:16;;;;;;;9.10;7.60;;;;;;;30.81;32.11;100206.39;109095;1258;58163;-77
2023/06/18 07:37:43;;;;;;;9.70;7.60;;;;;;;31.08;32.02;100209.59;108882;1261;73648;-77
2023/06/18 07:40:11;;;;;;;9.50;7.80;;;;;;;31.22;32.27;100208.23;109063;1257;62741;-77
2023/06/18 07:42:38;;;;;;;8.20;7.10;;;;;;;31.26;32.51;100209.14;109006;1257;64202;-77
2023/06/18 07:45:05;;;;;;;8.30;7.50;;;;;;;31.35;31.93;100205.16;108966;1258;58331;-78
2023/06/18 07:47:32;;;;;;;9.50;7.90;;;;;;;31.49;31.37;100201.09;108962;1257;59733;-77
2023/06/18 07:49:59;;;;;;;9.10;7.70;;;;;;;31.52;31.45;100203.35;108905;1257;63840;-78
2023/06/18 07:52:27;;;;;;;8.40;7.30;;;;;;;31.56;31.29;100202.36;108962;1259;64041;-77
2023/06/18 07:54:54;;;;;;;8.40;7.10;;;;;;;31.66;31.08;100200.15;108987;1259;62599;-77
2023/06/18 07:57:21;;;;;;;8.40;7.00;;;;;;;31.80;31.11;100203.33;108958;1257;58234;-77
2023/06/18 07:59:48;;;;;;;8.00;7.20;;;;;;;31.93;30.85;100205.02;109035;1257;58455;-77
2023/06/18 08:02:15;;;;;;;9.20;6.80;;;;;;;32.04;31.02;100204.91;109100;1257;64276;-79
2023/06/18 08:04:42;;;;;;;7.80;6.90;;;;;;;32.18;31.05;100208.14;109028;1257;64193;-77
2023/06/18 08:07:08;;;;;;;7.50;6.10;;;;;;;32.35;30.26;100205.80;109068;1257;62574;-78
2023/06/18 08:09:36;;;;;;;7.40;6.50;;;;;;;32.48;29.42;100210.47;108985;1257;58855;-78
2023/06/18 08:12:03;;;;;;;7.90;6.70;;;;;;;32.55;29.58;100209.36;109093;1257;58199;-78
2023/06/18 08:14:30;;;;;;;9.80;7.20;;;;;;;32.62;30.04;100207.83;109016;1257;65288;-77
2023/06/18 08:16:57;;;;;;;6.70;6.10;;;;;;;32.69;29.10;100208.30;109093;1257;62610;-77
2023/06/18 08:19:24;;;;;;;6.90;6.10;;;;;;;32.79;28.31;100209.80;108997;1257;65515;-77
2023/06/18 08:21:52;;;;;;;7.20;6.00;;;;;;;32.89;28.59;100210.05;108978;1257;58198;-77
2023/06/18 08:24:19;;;;;;;6.20;5.60;;;;;;;33.01;26.86;100208.16;108980;1257;58117;-77
2023/06/18 08:26:46;;;;;;;6.90;5.90;;;;;;;33.14;26.46;100206.14;109074;1257;63949;-77
2023/06/18 08:29:14;;;;;;;7.70;6.40;;;;;;;33.28;26.36;100209.31;109071;1257;63809;-81
2023/06/18 08:31:42;;;;;;;7.20;6.10;;;;;;;33.40;26.84;100210.77;108986;1257;62715;-79
2023/06/18 08:34:08;;;;;;;7.90;5.70;;;;;;;33.33;27.25;100213.02;109030;1257;58159;-78
2023/06/18 08:36:36;;;;;;;6.10;5.30;;;;;;;33.16;27.27;100213.14;109073;1257;58259;-79
2023/06/18 08:39:04;;;;;;;7.20;5.60;;;;;;;33.14;26.30;100211.73;109033;1257;63796;-78
2023/06/18 08:41:30;;;;;;;7.20;5.70;;;;;;;33.23;25.28;100210.48;109011;1257;64430;-77
2023/06/18 08:44:00;;;;;;;5.80;5.20;;;;;;;33.34;24.50;100210.55;109035;1257;64223;-79
2023/06/18 08:46:27;;;;;;;6.60;5.30;;;;;;;33.39;24.22;100212.85;108971;1257;58132;-76
2023/06/18 08:48:59;;;;;;;6.70;5.40;;;;;;;33.36;24.50;100208.46;109041;1257;58896;-78
2023/06/18 08:51:26;;;;;;;7.00;5.50;;;;;;;33.30;24.37;100209.30;109012;1257;65091;-78
2023/06/18 08:54:08;;;;;;;6.60;4.90;;;;;;;33.24;23.99;100208.19;109006;1257;62524;-78
2023/06/18 08:56:53;;;;;;;7.40;5.00;;;;;;;33.24;24.25;100208.66;109016;1257;63911;-78
2023/06/18 08:59:20;;;;;;;5.70;5.10;;;;;;;33.32;23.94;100206.57;108906;1257;58257;-78
2023/06/18 09:01:48;;;;;;;6.70;6.00;;;;;;;33.45;24.27;100203.42;109003;1257;58446;-77
2023/06/18 09:04:15;;;;;;;7.20;5.70;;;;;;;33.53;24.01;100199.58;108941;1257;65084;-77
2023/06/18 09:06:42;;;;;;;8.90;5.20;;;;;;;33.56;23.62;100198.73;108994;1257;64089;-78
2023/06/18 09:09:11;;;;;;;5.80;4.70;;;;;;;33.68;23.81;100197.41;108994;1257;64265;-78
2023/06/18 09:11:38;;;;;;;5.30;4.70;;;;;;;33.79;23.25;100196.88;109030;1257;58243;-78
2023/06/18 09:14:05;;;;;;;6.20;5.60;;;;;;;33.81;23.34;100193.13;109129;1257;58042;-77
2023/06/18 09:16:32;;;;;;;7.60;5.60;;;;;;;33.78;23.47;100189.23;109102;1257;63648;-77
2023/06/18 09:19:00;;;;;;;6.50;5.30;;;;;;;33.75;23.01;100187.46;109034;1257;64091;-77
2023/06/18 09:21:35;;;;;;;6.00;5.40;;;;;;;33.73;23.27;100188.05;109052;1257;64045;-78
2023/06/18 09:24:01;;;;;;;5.70;5.10;;;;;;;33.77;22.76;100188.13;109027;1257;58196;-77
2023/06/18 09:26:33;;;;;;;6.30;5.30;;;;;;;33.88;23.06;100191.41;109029;1257;58177;-76
2023/06/18 09:29:07;;;;;;;6.50;5.60;;;;;;;34.01;22.56;100187.45;109021;1258;65434;-77
2023/06/18 09:31:35;;;;;;;7.20;5.20;;;;;;;34.11;22.57;100184.34;109009;1257;64188;-78
2023/06/18 09:34:20;;;;;;;6.60;5.40;;;;;;;34.18;22.16;100185.78;108999;1257;63761;-76
2023/06/18 09:36:49;;;;;;;8.00;5.70;;;;;;;34.20;22.85;100180.67;108997;1257;58268;-77
2023/06/18 09:39:22;;;;;;;6.70;5.50;;;;;;;34.21;22.73;100175.19;108962;1257;58272;-77
2023/06/18 09:41:50;;;;;;;6.10;5.40;;;;;;;34.29;21.97;100173.48;109054;1258;63747;-78
2023/06/18 09:44:17;;;;;;;6.20;5.40;;;;;;;34.42;20.01;100177.98;109048;1257;63911;-78
2023/06/18 09:46:46;;;;;;;6.00;5.40;;;;;;;34.37;18.41;100178.16;109016;1257;63857;-78
2023/06/18 09:49:18;;;;;;;6.00;5.40;;;;;;;34.32;18.41;100173.19;108940;1259;58366;-79
2023/06/18 09:51:45;;;;;;;8.20;5.60;;;;;;;34.29;17.94;100172.85;108981;1259;58338;-79
2023/06/18 09:54:12;;;;;;;6.20;5.60;;;;;;;34.31;18.66;100168.80;108948;1259;65024;-80
2023/06/18 09:56:39;;;;;;;6.80;5.60;;;;;;;34.30;17.78;100162.64;108951;1257;63946;-78
2023/06/18 09:59:06;;;;;;;6.10;5.20;;;;;;;34.19;18.19;100165.02;108958;1257;63872;-78
2023/06/18 10:01:46;;;;;;;6.70;5.90;;;;;;;34.18;19.88;100162.80;108952;1257;58120;-76
2023/06/18 10:04:16;;;;;;;7.20;5.60;;;;;;;34.19;20.33;100158.90;109094;1257;58661;-78
2023/06/18 10:07:02;;;;;;;6.80;5.10;;;;;;;34.23;19.69;100157.25;109032;1257;65088;-78
2023/06/18 10:09:39;;;;;;;6.20;5.60;;;;;;;34.14;18.72;100161.48;109073;1257;62881;-77
2023/06/18 10:12:06;;;;;;;6.10;5.40;;;;;;;33.94;21.02;100166.83;108996;1257;62872;-77
2023/06/18 10:14:33;;;;;;;8.10;5.60;;;;;;;33.83;21.53;100166.02;108976;1257;58162;-77
2023/06/18 10:17:09;;;;;;;6.10;5.20;;;;;;;33.84;22.32;100166.15;108942;1257;58240;-78
2023/06/18 10:20:04;;;;;;;5.90;5.30;;;;;;;33.79;22.33;100163.95;108983;1257;73744;-78
2023/06/18 10:22:58;;;;;;;6.20;5.60;;;;;;;33.57;23.03;100163.66;109081;1257;64114;-81
2023/06/18 10:25:25;;;;;;;6.10;5.50;;;;;;;33.21;23.67;100162.77;108999;1257;72592;-78
2023/06/18 10:27:52;;;;;;;7.40;5.90;;;;;;;32.99;24.08;100163.52;108967;1257;58157;-78
2023/06/18 10:30:19;;;;;;;8.00;5.70;;;;;;;32.90;24.08;100163.81;109109;1257;58028;-78
2023/06/18 10:32:46;;;;;;;6.00;5.40;;;;;;;32.98;24.01;100159.52;109031;1257;65084;-77
2023/06/18 10:35:13;;;;;;;6.40;5.80;;;;;;;33.14;23.51;100155.07;109077;1257;62615;-77
2023/06/18 10:37:41;;;;;;;6.20;5.50;;;;;;;33.37;23.58;100155.38;109069;1257;64134;-77
2023/06/18 10:40:09;;;;;;;6.80;4.90;;;;;;;33.54;22.47;100157.38;109039;1257;58545;-78
2023/06/18 10:42:36;;;;;;;8.00;5.80;;;;;;;33.57;22.38;100155.43;109086;1257;58241;-77
2023/06/18 10:45:09;;;;;;;6.20;5.30;;;;;;;33.56;22.25;100154.10;109077;1257;63976;-77
2023/06/18 10:47:37;;;;;;;6.20;5.50;;;;;;;33.58;22.44;100152.34;109104;1257;64036;-78
2023/06/18 10:50:07;;;;;;;6.40;5.50;;;;;;;33.70;22.81;100157.58;109079;1257;62524;-78
2023/06/18 10:52:36;;;;;;;6.30;5.70;;;;;;;33.83;22.33;100160.64;109053;1257;58045;-77
2023/06/18 10:55:14;;;;;;;6.20;5.50;;;;;;;33.92;21.52;100156.52;109079;1257;58187;-76
2023/06/18 10:57:51;;;;;;;6.20;5.60;;;;;;;33.95;21.26;100152.40;109050;1257;64254;-77
2023/06/18 11:00:28;;;;;;;5.50;5.00;;;;;;;34.07;21.84;100150.67;108990;1257;64187;-78
2023/06/18 11:03:24;;;;;;;6.20;5.50;;;;;;;34.26;21.35;100151.55;109086;1257;62572;-78
2023/06/18 11:05:53;;;;;;;8.30;5.70;;;;;;;34.35;21.32;100154.37;108904;1257;58247;-77
2023/06/18 11:08:30;;;;;;;6.20;5.60;;;;;;;34.48;20.80;100151.48;109090;1257;58356;-77
2023/06/18 11:11:07;;;;;;;6.40;5.30;;;;;;;34.60;20.10;100149.55;109088;1257;64664;-77
2023/06/18 11:13:38;;;;;;;6.00;5.40;;;;;;;34.66;20.39;100152.66;109020;1257;62999;-77
2023/06/18 11:16:12;;;;;;;6.60;5.40;;;;;;;34.67;19.88;100150.67;109022;1257;62679;-78
2023/06/18 11:18:42;;;;;;;6.70;5.50;;;;;;;34.66;19.37;100149.11;109060;1257;58292;-78
2023/06/18 11:21:16;;;;;;;6.50;5.80;;;;;;;34.71;19.08;100151.34;109050;1257;58017;-77
2023/06/18 11:23:43;;;;;;;6.10;5.30;;;;;;;34.93;19.32;100150.04;109104;1257;63807;-78
2023/06/18 11:26:18;;;;;;;6.20;5.40;;;;;;;35.11;18.87;100148.44;109073;1257;63938;-78
2023/06/18 11:28:46;;;;;;;5.80;5.20;;;;;;;35.13;18.95;100153.77;109050;1257;63955;-77
2023/06/18 11:31:13;;;;;;;6.00;5.20;;;;;;;35.09;20.15;100155.95;109048;1257;58229;-77
2023/06/18 11:33:49;;;;;;;6.30;5.70;;;;;;;34.89;20.24;100156.72;108984;1259;58404;-78
2023/06/18 11:36:17;;;;;;;7.40;5.60;;;;;;;34.47;20.37;100161.08;109002;1259;65410;-78
2023/06/18 11:38:47;;;;;;;5.70;5.10;;;;;;;34.05;20.66;100162.34;109034;1259;62771;-77
2023/06/18 11:41:14;;;;;;;6.00;5.40;;;;;;;33.76;20.53;100163.48;108973;1259;64048;-78
2023/06/18 11:43:51;;;;;;;6.90;6.00;;;;;;;33.54;20.56;100164.59;108930;1259;58278;-76
2023/06/18 11:46:33;;;;;;;6.50;5.60;;;;;;;33.32;21.32;100164.56;109024;1260;58973;-77
2023/06/18 11:49:00;;;;;;;5.80;5.20;;;;;;;33.11;22.05;100165.48;109039;1259;63728;-78
2023/06/18 11:51:28;;;;;;;5.90;5.20;;;;;;;32.98;22.72;100167.49;109029;1258;64207;-79
2023/06/18 11:53:55;;;;;;;6.00;5.40;;;;;;;32.94;22.48;100164.23;108974;1259;64012;-78
2023/06/18 11:56:26;;;;;;;6.40;5.70;;;;;;;32.88;22.41;100165.58;108994;1259;58193;-78
2023/06/18 11:58:56;;;;;;;7.50;5.50;;;;;;;32.84;22.94;100160.66;109027;1259;58202;-78
2023/06/18 12:01:31;;;;;;;6.10;5.50;;;;;;;32.90;23.40;100161.44;108996;1259;65230;-78
2023/06/18 12:04:06;;;;;;;6.30;5.70;;;;;;;33.00;23.55;100164.08;109040;1259;62846;-78
2023/06/18 12:06:34;;;;;;;6.30;5.40;;;;;;;33.09;23.67;100162.41;109031;1259;62622;-78
2023/06/18 12:09:06;;;;;;;5.50;5.00;;;;;;;33.26;22.94;100155.98;108989;1258;58216;-76
2023/06/18 12:12:01;;;;;;;6.30;5.00;;;;;;;33.48;22.30;100155.52;108911;1259;58033;-78
2023/06/18 12:14:39;;;;;;;7.10;5.40;;;;;;;33.66;22.58;100157.95;109076;1258;65086;-78
2023/06/18 12:17:38;;;;;;;6.60;5.30;;;;;;;33.72;21.25;100155.71;109013;1259;64204;-77
2023/06/18 12:20:10;;;;;;;6.10;5.20;;;;;;;33.82;21.46;100151.48;109024;1260;63921;-78
2023/06/18 12:22:39;;;;;;;6.00;5.40;;;;;;;34.00;21.73;100150.89;109022;1259;58278;-77